Αρχική σελίδα
METAR-TAF:

METAR-TAF

Αεροδρόμια :

Βάλις, Γαλλία

γεωγραφικό πλάτος: 13-14S, γεωγραφικό μήκος: 176-10W, υψόμετρο: 23 μ

METAR: λείπει

Χρόνος: 11:10 (23:10 UTC)

Πρόγνωση Καιρού

Η αναφορά έγινε 6 ώρες και 10 λεπτά πριν, στις 17:00 UTC
Η πρόγνωση ισχύει από τις 25 στις 18 UTC έως τις 26 στις 18 UTC
Άνεμος 8 kt από Ν/NA
Ορατότητα 10 χλμ και άνω
Λίγα νέφη σε ύψος 2000 πόδια
Προσωρινά
από 26 στις 00 UTC έως τις 26 στις 12 UTC
Ορατότητα: 4500 μ
Αρκετά νέφη σε ύψος 1400 πόδια
Λίγα νέφη σε ύψος 2000 πόδια, Σωρείτες καθέτου αναπτύξεως.
Όμβροι
Προσωρινά
από 26 στις 12 UTC έως τις 26 στις 18 UTC
Ορατότητα: 3000 μ
Αρκετά νέφη σε ύψος 1000 πόδια
Λίγα νέφη σε ύψος 1800 πόδια, Σωρειτομελανίτες.
Όμβροι

TAF: NLWW 251700Z 2518/2618 16008KT 9999 FEW020 TEMPO 2600/2612 4500 SHRA BKN014 FEW020TCU TEMPO 2612/2618 3000 SHRA BKN010 FEW018CB

Μετεωρολογικές αναφορές και προγνώσεις για περισσότερα από 4000 αεροδρόμια (δελτία METAR και TAF).

Οι διαθέσιμοι σταθμοί απεικονίζονται στο χάρτη με κίτρινες και κόκκινες κουκκίδες.

Μετακινήστε το ποντίκι πάνω από τις κουκκίδες για να δείτε το όνομα του σταθμού.

Στη συνέχεια, κάντε κλικ για να δείτε τις μετεωρολογικές αναφορές και τις προγνώσεις καιρού.

Για να αλλάξετε το χάρτη: κάντε κλικ στα πράσινα κουμπιά με τον μαύρο σταυρό για να ζουμάρετε, στο πράσινο κουμπί με την παύλα για να αφαιρέσετε το ζουμ ή στα πράσινα βέλη για να αντιπαραβάλλετε χάρτες.


METAR-TAF: